createdAt,value
2018-08-20T00:00:16.140Z,5.80
2018-08-20T00:01:16.039Z,7.10
2018-08-20T00:02:15.988Z,7.30
2018-08-20T00:03:15.932Z,6.80
2018-08-20T00:04:15.880Z,8.60
2018-08-20T00:05:15.870Z,4.90
2018-08-20T00:06:15.780Z,6.90
2018-08-20T00:07:15.725Z,4.90
2018-08-20T00:08:15.672Z,6.20
2018-08-20T00:09:15.625Z,5.70
2018-08-20T00:10:15.565Z,5.80
2018-08-20T00:11:15.539Z,6.00
2018-08-20T00:12:15.458Z,5.90
2018-08-20T00:13:15.409Z,6.50
2018-08-20T00:14:15.355Z,6.90
2018-08-20T00:15:15.304Z,8.70
2018-08-20T00:16:15.285Z,5.30
2018-08-20T00:17:15.208Z,5.30
2018-08-20T00:18:15.150Z,8.20
2018-08-20T00:19:15.101Z,6.00
2018-08-20T00:20:15.043Z,6.50
2018-08-20T00:21:15.020Z,6.70
2018-08-20T00:22:14.934Z,6.40
2018-08-20T00:23:14.879Z,4.80
2018-08-20T00:24:14.828Z,8.70
2018-08-20T00:25:14.773Z,8.00
2018-08-20T00:26:14.753Z,7.90
2018-08-20T00:27:14.675Z,6.40
2018-08-20T00:28:14.638Z,5.90
2018-08-20T00:29:14.578Z,6.30
2018-08-20T00:30:14.536Z,7.80
2018-08-20T00:31:14.513Z,5.40
2018-08-20T00:32:14.438Z,5.20
2018-08-20T00:33:14.392Z,4.40
2018-08-20T00:34:14.355Z,5.70
2018-08-20T00:35:14.309Z,5.90
2018-08-20T00:36:14.291Z,6.70
2018-08-20T00:37:14.215Z,5.10
2018-08-20T00:38:14.171Z,5.30
2018-08-20T00:39:14.128Z,5.50
2018-08-20T00:40:14.079Z,6.60
2018-08-20T00:41:14.062Z,6.60
2018-08-20T00:42:14.022Z,6.90
2018-08-20T00:43:13.942Z,7.40
2018-08-20T00:44:13.897Z,5.50
2018-08-20T00:45:13.851Z,7.10
2018-08-20T00:46:13.807Z,6.50
2018-08-20T00:47:13.830Z,7.70
2018-08-20T00:48:13.723Z,8.60
2018-08-20T00:49:13.679Z,7.30
2018-08-20T00:50:13.638Z,6.50
2018-08-20T00:51:13.599Z,7.70
2018-08-20T00:52:13.593Z,6.50
2018-08-20T00:53:13.522Z,6.20
2018-08-20T00:54:13.494Z,7.10
2018-08-20T00:55:13.438Z,7.10
2018-08-20T00:56:13.401Z,5.90
2018-08-20T00:57:13.410Z,6.10
2018-08-20T00:58:13.327Z,8.30
2018-08-20T00:59:13.283Z,6.90
2018-08-20T01:00:13.241Z,6.90
2018-08-20T01:01:13.202Z,8.90
2018-08-20T01:02:13.169Z,7.20
2018-08-20T01:03:13.161Z,4.80
2018-08-20T01:04:13.091Z,5.80
2018-08-20T01:05:13.062Z,6.30
2018-08-20T01:06:13.019Z,6.70
2018-08-20T01:07:12.990Z,7.50
2018-08-20T01:08:12.980Z,6.60
2018-08-20T01:09:12.923Z,5.80
2018-08-20T01:10:12.889Z,7.20
2018-08-20T01:11:12.852Z,7.70
2018-08-20T01:12:12.824Z,6.80
2018-08-20T01:13:12.817Z,6.30
2018-08-20T01:14:12.757Z,6.70
2018-08-20T01:15:12.734Z,6.40
2018-08-20T01:16:12.696Z,5.70
2018-08-20T01:17:12.669Z,5.70
2018-08-20T01:18:12.667Z,5.30
2018-08-20T01:19:12.602Z,6.00
2018-08-20T01:20:12.575Z,6.80
2018-08-20T01:21:12.535Z,6.80
2018-08-20T01:22:12.504Z,7.50
2018-08-20T01:23:12.508Z,6.70
2018-08-20T01:24:12.442Z,8.10
2018-08-20T01:25:12.420Z,6.40
2018-08-20T01:26:12.385Z,8.30
2018-08-20T01:27:12.345Z,6.40
2018-08-20T01:28:12.347Z,7.10
2018-08-20T01:29:12.277Z,7.50
2018-08-20T01:30:12.253Z,6.90
2018-08-20T01:31:12.215Z,7.10
2018-08-20T01:32:12.190Z,6.70
2018-08-20T01:33:12.193Z,7.10
2018-08-20T01:34:12.135Z,7.10
2018-08-20T01:35:12.092Z,6.70
2018-08-20T01:36:12.068Z,6.00
2018-08-20T01:37:12.065Z,7.20
2018-08-20T01:38:12.006Z,7.30
2018-08-20T01:39:12.008Z,5.90
2018-08-20T01:40:11.951Z,7.30
2018-08-20T01:41:11.919Z,6.00
2018-08-20T01:42:11.892Z,8.10
2018-08-20T01:43:11.856Z,7.30
2018-08-20T01:44:11.856Z,6.70
2018-08-20T01:45:11.810Z,5.80
2018-08-20T01:46:11.765Z,10.10
2018-08-20T01:47:11.739Z,6.70
2018-08-20T01:48:11.716Z,7.40
2018-08-20T01:49:11.710Z,8.00
2018-08-20T01:50:11.658Z,5.20
2018-08-20T01:51:11.637Z,6.20
2018-08-20T01:52:11.606Z,8.40
2018-08-20T01:53:11.579Z,7.40
2018-08-20T01:54:11.582Z,7.60
2018-08-20T01:55:11.524Z,6.80
2018-08-20T01:56:11.501Z,5.90
2018-08-20T01:57:11.476Z,8.10
2018-08-20T01:58:11.447Z,8.20
2018-08-20T01:59:11.418Z,7.80
2018-08-20T02:00:11.425Z,7.60
2018-08-20T02:01:11.366Z,7.60
2018-08-20T02:02:11.346Z,6.80
2018-08-20T02:03:11.319Z,8.00
2018-08-20T02:04:11.295Z,6.70
2018-08-20T02:05:11.302Z,6.60
2018-08-20T02:06:11.255Z,7.50
2018-08-20T02:07:11.237Z,8.40
2018-08-20T02:08:11.205Z,6.90
2018-08-20T02:09:11.183Z,5.20
2018-08-20T02:10:11.189Z,8.70
2018-08-20T02:11:11.166Z,7.10
2018-08-20T02:12:11.130Z,7.60
2018-08-20T02:13:11.115Z,7.50
2018-08-20T02:14:11.097Z,6.50
2018-08-20T02:15:11.107Z,7.40
2018-08-20T02:16:11.068Z,6.70
2018-08-20T02:17:11.054Z,5.40
2018-08-20T02:18:11.032Z,7.20
2018-08-20T02:19:11.014Z,6.60
2018-08-20T02:20:11.030Z,7.10
2018-08-20T02:21:10.987Z,6.50
2018-08-20T02:22:10.972Z,6.70
2018-08-20T02:23:10.960Z,6.60
2018-08-20T02:24:10.960Z,6.80
2018-08-20T02:25:10.938Z,6.80
2018-08-20T02:26:10.943Z,7.20
2018-08-20T02:27:10.896Z,8.40
2018-08-20T02:28:10.881Z,9.10
2018-08-20T02:29:10.864Z,6.90
2018-08-20T02:30:10.843Z,8.10
2018-08-20T02:31:10.869Z,7.50
2018-08-20T02:32:10.813Z,7.50
2018-08-20T02:33:10.795Z,7.70
2018-08-20T02:34:10.776Z,8.50
2018-08-20T02:35:10.759Z,6.40
2018-08-20T02:36:10.770Z,8.80
2018-08-20T02:37:10.736Z,6.30
2018-08-20T02:38:10.723Z,8.10
2018-08-20T02:39:10.697Z,7.30
2018-08-20T02:40:10.734Z,11.70
2018-08-20T02:41:10.700Z,9.10
2018-08-20T02:42:10.668Z,9.60
2018-08-20T02:43:10.650Z,12.80
2018-08-20T02:44:10.645Z,10.80
2018-08-20T02:45:10.629Z,7.90
2018-08-20T02:46:10.663Z,7.60
2018-08-20T02:47:10.613Z,7.80
2018-08-20T02:48:10.594Z,8.30
2018-08-20T02:49:10.588Z,7.10
2018-08-20T02:50:10.566Z,7.70
2018-08-20T02:51:10.554Z,7.00
2018-08-20T02:52:10.574Z,7.30
2018-08-20T02:53:10.528Z,6.70
2018-08-20T02:54:10.519Z,5.70
2018-08-20T02:55:10.505Z,7.70
2018-08-20T02:56:10.486Z,9.40
2018-08-20T02:57:10.506Z,7.40
2018-08-20T02:58:10.477Z,7.20
2018-08-20T02:59:10.449Z,9.20
2018-08-20T03:00:10.449Z,6.10
2018-08-20T03:01:10.445Z,7.30
2018-08-20T03:02:10.546Z,8.50
2018-08-20T03:03:10.411Z,6.60
2018-08-20T03:04:10.393Z,6.70
2018-08-20T03:05:10.384Z,5.50
2018-08-20T03:06:10.364Z,6.70
2018-08-20T03:07:10.380Z,6.60
2018-08-20T03:08:10.350Z,6.80
2018-08-20T03:09:10.348Z,6.80
2018-08-20T03:10:10.337Z,7.30
2018-08-20T03:11:10.325Z,6.40
2018-08-20T03:12:10.343Z,7.30
2018-08-20T03:13:10.304Z,8.10
2018-08-20T03:14:10.299Z,8.60
2018-08-20T03:15:10.288Z,8.30
2018-08-20T03:16:10.300Z,6.70
2018-08-20T03:17:10.299Z,6.00
2018-08-20T03:18:10.261Z,6.70
2018-08-20T03:19:10.246Z,7.20
2018-08-20T03:20:10.247Z,6.70
2018-08-20T03:21:10.242Z,5.30
2018-08-20T03:22:10.262Z,7.80
2018-08-20T03:23:10.230Z,7.50
2018-08-20T03:24:10.226Z,8.20
2018-08-20T03:25:10.221Z,6.70
2018-08-20T03:26:10.218Z,6.80
2018-08-20T03:27:10.244Z,8.30
2018-08-20T03:28:10.204Z,8.30
2018-08-20T03:29:10.198Z,9.40
2018-08-20T03:30:10.200Z,7.90
2018-08-20T03:31:10.193Z,8.60
2018-08-20T03:32:10.186Z,9.00
2018-08-20T03:33:10.209Z,7.20
2018-08-20T03:34:10.175Z,7.70
2018-08-20T03:35:10.174Z,7.10
2018-08-20T03:36:10.168Z,6.90
2018-08-20T03:37:10.168Z,7.90
2018-08-20T03:38:10.196Z,9.40
2018-08-20T03:39:10.160Z,6.40
2018-08-20T03:40:10.154Z,7.90
2018-08-20T03:41:10.143Z,9.90
2018-08-20T03:42:10.139Z,8.10
2018-08-20T03:43:10.180Z,7.60
2018-08-20T03:44:10.128Z,6.90
2018-08-20T03:45:10.121Z,7.40
2018-08-20T03:46:10.115Z,7.00
2018-08-20T03:47:10.113Z,7.50
2018-08-20T03:48:10.110Z,9.90
2018-08-20T03:49:10.131Z,8.20
2018-08-20T03:50:10.102Z,7.00
2018-08-20T03:51:10.101Z,9.10
2018-08-20T03:52:10.095Z,6.10
2018-08-20T03:53:10.089Z,6.50
2018-08-20T03:54:10.113Z,6.60
2018-08-20T03:55:10.085Z,6.80
2018-08-20T03:56:10.130Z,6.30
2018-08-20T03:57:10.084Z,7.70
2018-08-20T03:58:10.087Z,8.80
2018-08-20T03:59:10.113Z,11.00
2018-08-20T04:00:10.087Z,7.20
2018-08-20T04:01:10.089Z,9.80
2018-08-20T04:02:10.092Z,7.60
2018-08-20T04:03:10.095Z,8.30
2018-08-20T04:04:10.128Z,8.10
2018-08-20T04:05:10.106Z,6.70
2018-08-20T04:06:10.105Z,7.90
2018-08-20T04:07:10.112Z,9.10
2018-08-20T04:08:10.113Z,8.40
2018-08-20T04:09:10.144Z,6.80
2018-08-20T04:10:10.124Z,8.10
2018-08-20T04:11:10.132Z,8.00
2018-08-20T04:12:10.143Z,7.10
2018-08-20T04:13:10.143Z,7.40
2018-08-20T04:14:10.178Z,12.50
2018-08-20T04:15:10.149Z,10.80
2018-08-20T04:16:10.153Z,7.30
2018-08-20T04:17:10.158Z,8.70
2018-08-20T04:18:10.160Z,7.50
2018-08-20T04:19:10.202Z,8.10
2018-08-20T04:20:10.178Z,7.00
2018-08-20T04:21:10.177Z,9.60
2018-08-20T04:22:10.180Z,7.90
2018-08-20T04:23:10.189Z,10.10
2018-08-20T04:24:10.208Z,8.20
2018-08-20T04:25:10.191Z,9.10
2018-08-20T04:26:10.192Z,8.10
2018-08-20T04:27:10.200Z,8.30
2018-08-20T04:28:10.204Z,8.70
2018-08-20T04:29:10.250Z,10.40
2018-08-20T04:30:10.212Z,8.60
2018-08-20T04:31:10.216Z,9.30
2018-08-20T04:32:10.220Z,10.80
2018-08-20T04:33:10.240Z,7.10
2018-08-20T04:34:10.220Z,10.30
2018-08-20T04:35:10.250Z,7.80
2018-08-20T04:36:10.224Z,9.20
2018-08-20T04:37:10.232Z,9.90
2018-08-20T04:38:10.238Z,6.70
2018-08-20T04:39:10.244Z,6.40
2018-08-20T04:40:10.288Z,7.50
2018-08-20T04:41:10.260Z,6.60
2018-08-20T04:42:10.351Z,7.80
2018-08-20T04:43:10.272Z,8.30
2018-08-20T04:44:10.278Z,7.30
2018-08-20T04:45:10.334Z,9.00
2018-08-20T04:46:10.292Z,8.50
2018-08-20T04:47:10.314Z,8.10
2018-08-20T04:48:10.305Z,7.90
2018-08-20T04:49:10.315Z,9.50
2018-08-20T04:50:10.533Z,8.60
2018-08-20T04:51:10.531Z,8.00
2018-08-20T04:52:10.327Z,8.50
2018-08-20T04:53:10.330Z,11.40
2018-08-20T04:54:10.331Z,8.70
2018-08-20T04:55:10.334Z,9.10
2018-08-20T04:56:10.370Z,7.40
2018-08-20T04:57:10.352Z,7.90
2018-08-20T04:58:10.358Z,8.30
2018-08-20T04:59:10.353Z,11.30
2018-08-20T05:00:10.353Z,9.30
2018-08-20T05:01:10.385Z,7.60
2018-08-20T05:02:10.368Z,8.60
2018-08-20T05:03:10.365Z,7.60
2018-08-20T05:04:10.362Z,8.70
2018-08-20T05:05:10.367Z,14.50
2018-08-20T05:06:10.410Z,12.60
2018-08-20T05:07:10.347Z,14.10
2018-08-20T05:08:10.343Z,10.10
2018-08-20T05:09:10.340Z,9.70
2018-08-20T05:10:10.467Z,10.40
2018-08-20T05:11:10.355Z,11.00
2018-08-20T05:12:10.329Z,12.20
2018-08-20T05:13:10.323Z,10.00
2018-08-20T05:14:10.321Z,11.30
2018-08-20T05:15:10.316Z,8.70
2018-08-20T05:16:10.348Z,7.80
2018-08-20T05:17:10.311Z,9.90
2018-08-20T05:18:10.308Z,8.00
2018-08-20T05:19:10.303Z,7.70
2018-08-20T05:20:10.292Z,6.60
2018-08-20T05:21:10.317Z,7.40
2018-08-20T05:22:10.284Z,7.40
2018-08-20T05:23:10.273Z,9.30
2018-08-20T05:24:10.265Z,6.40
2018-08-20T05:25:10.260Z,8.30
2018-08-20T05:26:10.256Z,7.90
2018-08-20T05:27:10.278Z,9.50
2018-08-20T05:28:10.246Z,7.90
2018-08-20T05:29:10.240Z,7.80
2018-08-20T05:30:10.235Z,8.30
2018-08-20T05:31:10.234Z,8.00
2018-08-20T05:32:10.239Z,7.70
2018-08-20T05:33:10.205Z,6.70
2018-08-20T05:34:10.198Z,11.00
2018-08-20T05:35:10.189Z,8.60
2018-08-20T05:36:10.181Z,6.90
2018-08-20T05:37:10.217Z,9.30
2018-08-20T05:38:10.170Z,10.10
2018-08-20T05:39:10.162Z,7.90
2018-08-20T05:40:10.152Z,7.50
2018-08-20T05:41:10.145Z,7.80
2018-08-20T05:42:10.136Z,8.80
2018-08-20T05:43:10.152Z,8.20
2018-08-20T05:44:10.123Z,7.90
2018-08-20T05:45:10.104Z,8.70
2018-08-20T05:46:10.092Z,14.90
2018-08-20T05:47:10.073Z,10.50
2018-08-20T05:48:10.089Z,18.60
2018-08-20T05:49:10.058Z,13.50
2018-08-20T05:50:10.026Z,13.80
2018-08-20T05:51:10.012Z,15.10
2018-08-20T05:52:09.999Z,19.00
2018-08-20T05:53:10.002Z,13.20
2018-08-20T05:54:09.958Z,9.30
2018-08-20T05:55:09.940Z,7.90
2018-08-20T05:56:09.925Z,7.90
2018-08-20T05:57:09.913Z,9.10
2018-08-20T05:58:09.938Z,8.10
2018-08-20T05:59:09.901Z,8.90
2018-08-20T06:00:09.885Z,8.60
2018-08-20T06:01:09.861Z,11.10
2018-08-20T06:02:09.847Z,7.10
2018-08-20T06:03:09.857Z,8.80
2018-08-20T06:04:09.825Z,8.90
2018-08-20T06:05:09.813Z,9.00
2018-08-20T06:06:09.797Z,8.60
2018-08-20T06:07:09.782Z,8.80
2018-08-20T06:08:09.810Z,9.50
2018-08-20T06:09:09.749Z,8.40
2018-08-20T06:10:09.770Z,8.00
2018-08-20T06:11:09.721Z,9.00
2018-08-20T06:12:09.705Z,8.10
2018-08-20T06:13:09.689Z,8.00
2018-08-20T06:14:09.705Z,9.70
2018-08-20T06:15:09.732Z,10.00
2018-08-20T06:16:09.641Z,6.90
2018-08-20T06:17:09.630Z,9.90
2018-08-20T06:18:09.613Z,8.40
2018-08-20T06:19:09.627Z,10.40
2018-08-20T06:20:09.585Z,9.70
2018-08-20T06:21:09.567Z,9.40
2018-08-20T06:22:09.552Z,8.00
2018-08-20T06:23:09.534Z,11.20
2018-08-20T06:24:09.543Z,10.60
2018-08-20T06:25:09.574Z,10.70
2018-08-20T06:26:09.488Z,11.80
2018-08-20T06:27:09.469Z,10.40
2018-08-20T06:28:09.454Z,10.30
2018-08-20T06:29:09.464Z,11.30
2018-08-20T06:30:09.425Z,7.80
2018-08-20T06:31:09.405Z,8.40
2018-08-20T06:32:09.387Z,11.80
2018-08-20T06:33:09.373Z,8.70
2018-08-20T06:34:09.376Z,9.70
2018-08-20T06:35:09.334Z,7.90
2018-08-20T06:36:09.312Z,10.90
2018-08-20T06:37:09.291Z,9.90
2018-08-20T06:38:09.273Z,12.20
2018-08-20T06:39:09.273Z,8.90
2018-08-20T06:40:09.231Z,11.80
2018-08-20T06:41:09.202Z,11.10
2018-08-20T06:42:09.181Z,8.40
2018-08-20T06:43:09.160Z,7.30
2018-08-20T06:44:09.186Z,6.80
2018-08-20T06:45:09.120Z,8.20
2018-08-20T06:46:09.102Z,10.20
2018-08-20T06:47:09.080Z,9.60
2018-08-20T06:48:09.067Z,8.10
2018-08-20T06:49:09.040Z,7.50
2018-08-20T06:50:09.037Z,10.10
2018-08-20T06:51:08.983Z,11.20
2018-08-20T06:52:08.955Z,9.20
2018-08-20T06:53:08.931Z,12.70
2018-08-20T06:54:08.907Z,9.40
2018-08-20T06:55:08.905Z,8.60
2018-08-20T06:56:08.855Z,9.70
2018-08-20T06:57:08.832Z,10.20
2018-08-20T06:58:08.813Z,8.40
2018-08-20T06:59:08.799Z,12.70
2018-08-20T07:00:08.811Z,9.10
2018-08-20T07:01:08.756Z,9.00
2018-08-20T07:02:08.741Z,8.20
2018-08-20T07:03:08.729Z,9.30
2018-08-20T07:04:08.710Z,7.60
2018-08-20T07:05:08.715Z,8.70
2018-08-20T07:06:08.670Z,8.40
2018-08-20T07:07:08.652Z,8.80
2018-08-20T07:08:08.627Z,8.10
2018-08-20T07:09:08.609Z,9.00
2018-08-20T07:10:08.620Z,9.00
2018-08-20T07:11:08.559Z,10.00
2018-08-20T07:12:08.539Z,8.90
2018-08-20T07:13:08.526Z,10.30
2018-08-20T07:14:08.491Z,8.90
2018-08-20T07:15:08.481Z,8.90
2018-08-20T07:16:08.475Z,10.00
2018-08-20T07:17:08.476Z,8.20
2018-08-20T07:18:08.400Z,9.00
2018-08-20T07:19:08.377Z,9.90
2018-08-20T07:20:08.357Z,8.60
2018-08-20T07:21:08.354Z,8.70
2018-08-20T07:22:08.306Z,8.40
2018-08-20T07:23:08.338Z,10.70
2018-08-20T07:24:08.268Z,7.60
2018-08-20T07:25:08.241Z,9.80
2018-08-20T07:26:08.250Z,8.90
2018-08-20T07:27:08.198Z,10.00
2018-08-20T07:28:08.176Z,12.70
2018-08-20T07:29:08.151Z,12.60
2018-08-20T07:30:08.130Z,10.30
2018-08-20T07:31:08.133Z,8.70
2018-08-20T07:32:08.079Z,7.90
2018-08-20T07:33:08.057Z,9.50
2018-08-20T07:34:08.033Z,14.00
2018-08-20T07:35:08.012Z,10.90
2018-08-20T07:36:08.009Z,9.00
2018-08-20T07:37:07.959Z,10.90
2018-08-20T07:38:07.934Z,9.60
2018-08-20T07:39:07.910Z,9.10
2018-08-20T07:40:07.889Z,8.80
2018-08-20T07:41:07.882Z,7.90
2018-08-20T07:42:07.825Z,9.80
2018-08-20T07:43:07.798Z,10.00
2018-08-20T07:44:07.767Z,12.40
2018-08-20T07:45:07.735Z,9.10
2018-08-20T07:46:07.710Z,9.30
2018-08-20T07:47:07.711Z,9.10
2018-08-20T07:48:07.644Z,9.40
2018-08-20T07:49:07.612Z,7.60
2018-08-20T07:50:07.576Z,9.80
2018-08-20T07:51:07.544Z,9.40
2018-08-20T07:52:07.538Z,10.10
2018-08-20T07:53:07.479Z,9.40
2018-08-20T07:54:07.454Z,8.00
2018-08-20T07:55:07.413Z,9.20
2018-08-20T07:56:07.379Z,7.30
2018-08-20T07:57:07.371Z,11.80
2018-08-20T07:58:07.310Z,7.70
2018-08-20T07:59:07.284Z,8.40
2018-08-20T08:00:07.244Z,8.40
2018-08-20T08:01:07.211Z,9.30
2018-08-20T08:02:07.209Z,8.10
2018-08-20T08:03:07.149Z,8.70
2018-08-20T08:04:07.121Z,8.80
2018-08-20T08:05:07.080Z,10.10
2018-08-20T08:06:07.052Z,8.00
2018-08-20T08:07:07.037Z,9.50
2018-08-20T08:08:06.974Z,10.10
2018-08-20T08:09:06.941Z,10.00
2018-08-20T08:10:06.899Z,7.80
2018-08-20T08:11:06.866Z,9.00
2018-08-20T08:12:06.848Z,8.10
2018-08-20T08:13:06.786Z,7.60
2018-08-20T08:14:06.770Z,10.80
2018-08-20T08:15:06.708Z,7.00
2018-08-20T08:16:06.678Z,7.20
2018-08-20T08:17:06.653Z,6.60
2018-08-20T08:18:06.593Z,8.50
2018-08-20T08:19:06.553Z,9.10
2018-08-20T08:20:06.517Z,7.90
2018-08-20T08:21:06.487Z,10.70
2018-08-20T08:22:06.472Z,7.20
2018-08-20T08:23:06.407Z,7.00
2018-08-20T08:24:06.402Z,8.40
2018-08-20T08:25:06.337Z,7.30
2018-08-20T08:26:06.290Z,7.80
2018-08-20T08:27:06.270Z,9.30
2018-08-20T08:28:06.201Z,10.10
2018-08-20T08:29:06.163Z,8.30
2018-08-20T08:30:06.114Z,7.60
2018-08-20T08:31:06.074Z,8.90
2018-08-20T08:32:06.056Z,9.50
2018-08-20T08:33:05.990Z,7.30
2018-08-20T08:34:05.940Z,8.50
2018-08-20T08:35:05.894Z,8.90
2018-08-20T08:36:05.883Z,9.00
2018-08-20T08:37:05.993Z,9.10
2018-08-20T08:38:05.890Z,8.40
2018-08-20T08:39:05.696Z,6.90
2018-08-20T08:40:05.648Z,11.60
2018-08-20T08:41:05.595Z,10.80
2018-08-20T08:42:05.547Z,6.90
2018-08-20T08:43:05.526Z,8.20
2018-08-20T08:44:05.452Z,7.20
2018-08-20T08:45:05.404Z,8.10
2018-08-20T08:46:05.357Z,10.30
2018-08-20T08:47:05.310Z,7.00
2018-08-20T08:48:05.288Z,8.50
2018-08-20T08:49:05.213Z,8.30
2018-08-20T08:50:05.162Z,9.40
2018-08-20T08:51:05.111Z,9.70
2018-08-20T08:52:05.057Z,8.30
2018-08-20T08:53:05.051Z,9.20
2018-08-20T08:54:04.956Z,7.80
2018-08-20T08:55:04.899Z,9.10
2018-08-20T08:56:04.846Z,8.40
2018-08-20T08:57:04.793Z,9.10
2018-08-20T08:58:04.742Z,8.90
2018-08-20T08:59:04.713Z,8.10
2018-08-20T09:00:04.638Z,8.00
2018-08-20T09:01:04.582Z,8.80
2018-08-20T09:02:04.533Z,8.50
2018-08-20T09:03:04.473Z,7.80
2018-08-20T09:04:04.451Z,8.50
2018-08-20T09:05:04.364Z,7.40
2018-08-20T09:06:04.308Z,9.20
2018-08-20T09:07:04.255Z,8.50
2018-08-20T09:08:04.193Z,7.30
2018-08-20T09:09:04.164Z,8.70
2018-08-20T09:10:04.089Z,9.30
2018-08-20T09:11:04.032Z,8.30
2018-08-20T09:12:03.972Z,9.20
2018-08-20T09:13:03.917Z,8.70
2018-08-20T09:14:03.901Z,8.30
2018-08-20T09:15:03.797Z,8.00
2018-08-20T09:16:03.738Z,8.70
2018-08-20T09:17:03.676Z,8.10
2018-08-20T09:18:03.616Z,9.00
2018-08-20T09:19:03.556Z,7.80
2018-08-20T09:20:03.528Z,9.50
2018-08-20T09:21:03.434Z,7.90
2018-08-20T09:22:03.372Z,7.40
2018-08-20T09:23:03.306Z,10.40
2018-08-20T09:24:03.242Z,8.80
2018-08-20T09:25:03.253Z,7.90
2018-08-20T09:26:03.114Z,7.10
2018-08-20T09:27:03.049Z,8.00
2018-08-20T09:28:02.998Z,9.80
2018-08-20T09:29:02.931Z,6.70
2018-08-20T09:30:02.892Z,8.80
2018-08-20T09:31:02.808Z,8.90
2018-08-20T09:32:02.738Z,7.80
2018-08-20T09:33:02.666Z,8.80
2018-08-20T09:34:02.599Z,7.90
2018-08-20T09:35:02.559Z,8.40
2018-08-20T09:36:02.462Z,8.50
2018-08-20T09:37:02.401Z,13.40
2018-08-20T09:38:02.351Z,9.60
2018-08-20T09:39:02.273Z,10.10
2018-08-20T09:40:02.246Z,8.80
2018-08-20T09:41:02.124Z,9.70
2018-08-20T09:42:02.050Z,8.70
2018-08-20T09:43:01.976Z,7.70
2018-08-20T09:44:01.906Z,8.50
2018-08-20T09:45:01.864Z,7.40
2018-08-20T09:46:01.760Z,7.00
2018-08-20T09:47:01.689Z,6.60
2018-08-20T09:48:01.617Z,7.40
2018-08-20T09:49:01.539Z,8.00
2018-08-20T09:50:01.510Z,8.10
2018-08-20T09:51:01.389Z,8.40
2018-08-20T09:52:01.323Z,6.30
2018-08-20T09:53:01.241Z,7.70
2018-08-20T09:54:01.169Z,7.90
2018-08-20T09:55:01.115Z,6.90
2018-08-20T09:56:01.020Z,6.50
2018-08-20T09:57:00.951Z,6.70
2018-08-20T09:58:00.872Z,7.00
2018-08-20T09:59:00.805Z,7.10
2018-08-20T10:00:00.771Z,8.10
2018-08-20T10:01:00.652Z,7.10
2018-08-20T10:02:00.582Z,8.10
2018-08-20T10:03:00.510Z,7.10
2018-08-20T10:04:00.438Z,6.30
2018-08-20T10:05:00.365Z,6.10
2018-08-20T10:06:00.328Z,5.20
2018-08-20T10:07:00.215Z,6.40
2018-08-20T10:08:00.141Z,5.10
2018-08-20T10:09:00.067Z,3.80
2018-08-20T10:10:00.048Z,6.10
2018-08-20T10:10:59.944Z,5.80
2018-08-20T10:11:59.861Z,6.00
2018-08-20T10:12:59.770Z,4.60
2018-08-20T10:13:59.711Z,4.80
2018-08-20T10:14:59.635Z,6.90
2018-08-20T10:15:59.573Z,6.60
2018-08-20T10:16:59.474Z,7.10
2018-08-20T10:17:59.387Z,5.10
2018-08-20T10:18:59.318Z,4.90
2018-08-20T10:19:59.244Z,6.10
2018-08-20T10:20:59.212Z,7.40
2018-08-20T10:21:59.096Z,6.40
2018-08-20T10:22:59.026Z,4.50
2018-08-20T10:23:58.939Z,5.70
2018-08-20T10:24:58.860Z,6.70
2018-08-20T10:25:58.780Z,4.80
2018-08-20T10:26:58.732Z,6.50
2018-08-20T10:27:58.621Z,5.70
2018-08-20T10:28:58.540Z,6.20
2018-08-20T10:29:58.468Z,5.60
2018-08-20T10:30:58.381Z,6.30
2018-08-20T10:31:58.380Z,7.50
2018-08-20T10:32:58.231Z,6.50
2018-08-20T10:33:58.150Z,7.30
2018-08-20T10:34:58.074Z,6.10
2018-08-20T10:35:57.974Z,6.00
2018-08-20T10:36:57.965Z,4.50
2018-08-20T10:37:57.937Z,4.60
2018-08-20T10:38:57.771Z,4.80
2018-08-20T10:39:57.686Z,5.90
2018-08-20T10:40:57.586Z,4.80
2018-08-20T10:41:57.518Z,8.40
2018-08-20T10:42:57.417Z,4.10
2018-08-20T10:43:57.320Z,4.90
2018-08-20T10:44:57.318Z,8.10
2018-08-20T10:45:57.206Z,5.10
2018-08-20T10:46:57.235Z,5.30
2018-08-20T10:47:57.036Z,6.60
2018-08-20T10:48:56.900Z,8.00
2018-08-20T10:49:56.827Z,6.30
2018-08-20T10:50:56.739Z,5.70
2018-08-20T10:51:56.627Z,10.80
2018-08-20T10:52:56.583Z,5.80
2018-08-20T10:53:56.446Z,6.40
2018-08-20T10:54:56.361Z,5.70
2018-08-20T10:55:56.271Z,7.00
2018-08-20T10:56:56.165Z,6.90
2018-08-20T10:57:56.103Z,7.60
2018-08-20T10:58:55.977Z,5.10
2018-08-20T10:59:55.885Z,5.80
2018-08-20T11:00:55.795Z,5.60
2018-08-20T11:01:55.729Z,4.80
2018-08-20T11:02:55.616Z,6.50
2018-08-20T11:03:55.505Z,5.20
2018-08-20T11:04:55.394Z,5.30
2018-08-20T11:05:55.302Z,4.90
2018-08-20T11:06:55.198Z,5.20
2018-08-20T11:07:55.121Z,5.30
2018-08-20T11:08:54.992Z,5.70
2018-08-20T11:09:54.937Z,4.60
2018-08-20T11:10:54.879Z,4.20
2018-08-20T11:11:54.687Z,5.80
2018-08-20T11:12:54.614Z,7.90
2018-08-20T11:13:54.501Z,6.90
2018-08-20T11:14:54.376Z,4.50
2018-08-20T11:15:54.284Z,6.70
2018-08-20T11:16:54.192Z,5.90
2018-08-20T11:17:54.115Z,6.40
2018-08-20T11:18:54.012Z,4.80
2018-08-20T11:19:53.883Z,7.70
2018-08-20T11:20:53.780Z,6.60
2018-08-20T11:21:53.678Z,5.50
2018-08-20T11:22:53.600Z,6.70
2018-08-20T11:23:53.476Z,6.00
2018-08-20T11:24:53.403Z,5.10
2018-08-20T11:25:53.260Z,6.00
2018-08-20T11:26:53.206Z,7.30
2018-08-20T11:27:53.087Z,4.90
2018-08-20T11:28:52.954Z,7.50
2018-08-20T11:29:52.866Z,6.70
2018-08-20T11:30:52.741Z,9.00
2018-08-20T11:31:52.640Z,6.00
2018-08-20T11:32:52.534Z,8.10
2018-08-20T11:33:52.456Z,7.30
2018-08-20T11:34:52.343Z,7.20
2018-08-20T11:35:52.216Z,6.90
2018-08-20T11:36:52.107Z,7.50
2018-08-20T11:37:52.021Z,5.60
2018-08-20T11:38:51.927Z,6.90
2018-08-20T11:39:51.813Z,6.10
2018-08-20T11:40:51.694Z,6.00
2018-08-20T11:41:51.593Z,6.90
2018-08-20T11:42:51.514Z,5.90
2018-08-20T11:43:51.421Z,6.10
2018-08-20T11:44:51.279Z,6.90
2018-08-20T11:45:51.179Z,5.70
2018-08-20T11:46:51.080Z,6.10
2018-08-20T11:47:50.969Z,6.70
2018-08-20T11:48:50.867Z,5.60
2018-08-20T11:49:50.832Z,9.10
2018-08-20T11:50:50.653Z,6.60
2018-08-20T11:51:50.559Z,6.90
2018-08-20T11:52:50.442Z,6.70
2018-08-20T11:53:50.388Z,6.30
2018-08-20T11:54:51.269Z,6.60
2018-08-20T11:55:50.132Z,5.70
2018-08-20T11:56:50.028Z,6.20
2018-08-20T11:57:49.928Z,6.20
2018-08-20T11:58:49.811Z,6.90
2018-08-20T11:59:49.741Z,5.50
2018-08-20T12:00:49.589Z,7.20
2018-08-20T12:01:49.516Z,6.30
2018-08-20T12:02:49.366Z,5.90
2018-08-20T12:03:49.257Z,6.30
2018-08-20T12:04:49.171Z,7.50
2018-08-20T12:05:49.032Z,6.10
2018-08-20T12:06:48.966Z,6.00
2018-08-20T12:07:48.871Z,6.30
2018-08-20T12:08:48.696Z,6.10
2018-08-20T12:09:48.618Z,5.20
2018-08-20T12:10:48.473Z,5.50
2018-08-20T12:11:48.363Z,7.20
2018-08-20T12:12:48.251Z,5.90
2018-08-20T12:13:48.136Z,6.70
2018-08-20T12:14:48.021Z,6.30
2018-08-20T12:15:47.935Z,6.80
2018-08-20T12:16:47.800Z,6.40
2018-08-20T12:17:47.691Z,5.50
2018-08-20T12:18:47.578Z,6.90
2018-08-20T12:19:47.467Z,7.10
2018-08-20T12:20:47.377Z,4.90
2018-08-20T12:21:47.242Z,6.00
2018-08-20T12:22:47.134Z,6.20
2018-08-20T12:23:47.028Z,7.20
2018-08-20T12:24:46.909Z,6.10
2018-08-20T12:25:46.851Z,5.40
2018-08-20T12:26:46.684Z,6.90
2018-08-20T12:27:46.575Z,6.80
2018-08-20T12:28:46.459Z,5.30
2018-08-20T12:29:46.344Z,5.50
2018-08-20T12:30:46.271Z,8.40
2018-08-20T12:31:46.150Z,6.60
2018-08-20T12:32:46.018Z,5.30
2018-08-20T12:33:45.911Z,6.30
2018-08-20T12:34:45.800Z,5.80
2018-08-20T12:35:45.689Z,9.70
2018-08-20T12:36:45.600Z,6.20
2018-08-20T12:37:45.462Z,7.80
2018-08-20T12:38:45.353Z,7.60
2018-08-20T12:39:45.301Z,6.00
2018-08-20T12:40:45.145Z,7.20
2018-08-20T12:41:45.061Z,5.10
2018-08-20T12:42:44.927Z,5.70
2018-08-20T12:43:44.826Z,7.30
2018-08-20T12:44:44.707Z,6.20
2018-08-20T12:45:44.600Z,7.30
2018-08-20T12:46:44.516Z,5.00
2018-08-20T12:47:44.379Z,5.40
2018-08-20T12:48:44.266Z,5.20
2018-08-20T12:49:44.162Z,6.40
2018-08-20T12:50:44.042Z,6.40
2018-08-20T12:51:43.959Z,5.30
2018-08-20T12:52:43.816Z,5.50
2018-08-20T12:53:43.694Z,6.40
2018-08-20T12:54:43.581Z,6.50
2018-08-20T12:55:43.481Z,5.70
2018-08-20T12:56:43.390Z,5.50
2018-08-20T12:57:43.245Z,8.60
2018-08-20T12:58:43.136Z,5.70
2018-08-20T12:59:43.024Z,5.70
2018-08-20T13:00:42.938Z,7.10
2018-08-20T13:01:42.821Z,4.70
2018-08-20T13:02:42.676Z,5.80
2018-08-20T13:03:42.557Z,6.50
2018-08-20T13:04:42.449Z,6.40
2018-08-20T13:05:42.320Z,4.80
2018-08-20T13:06:42.240Z,5.90
2018-08-20T13:07:42.081Z,6.10
2018-08-20T13:08:41.960Z,6.70
2018-08-20T13:09:41.841Z,7.20
2018-08-20T13:10:41.721Z,4.50
2018-08-20T13:11:41.594Z,6.80
2018-08-20T13:12:41.500Z,6.60
2018-08-20T13:13:41.352Z,7.70
2018-08-20T13:14:41.259Z,5.60